Latest Weather Observations for Cape Flattery

IDQ60801

Issued at 7:31 am EST Friday 19 December 2014 (issued every 30 minutes, with the page automatically refreshed every 10 minutes)

About weather observations | Map of weather stations | Latest weather observations for QLD | Other Formats
Station Details ID: 031213 Name: CAPE FLATTERY Lat: -14.97 Lon: 145.31 Height: 18.5 m
Data from the previous 72 hours. | See also: Recent months at Cape Flattery
Date/Time
EST
Temp
°C
App
Temp
°C
Dew
Point
Rel
Hum
%
Delta-T
°C
Wind Press
QNH
hPa
Press
MSL
hPa
Rain
since 9 am
mm
Dir
 
Spd
km/h
Gust
km/h
Spd
kts
Gust
kts
19/07:30am 27.7 29.5 20.3 64 4.9 ESE 11 15 6 8 1012.0 1011.9 0.0
19/07:00am 26.5 29.0 21.0 72 3.6 ESE 9 13 5 7 1011.6 1011.5 0.0
19/06:30am 24.4 26.6 20.5 79 2.5 SE 9 11 5 6 1011.6 1011.5 0.0
19/06:00am 23.3 25.1 19.5 79 2.4 ESE 9 11 5 6 1011.3 1011.2 0.0
19/05:30am 23.6 25.1 19.7 79 2.5 E 11 13 6 7 1010.9 1010.8 0.0
19/05:00am 23.7 25.6 19.8 79 2.5 ENE 9 13 5 7 1010.5 1010.4 0.0
19/04:30am 23.7 25.1 19.6 78 2.6 E 11 13 6 7 1010.5 1010.4 0.0
19/04:00am 24.2 25.8 19.9 77 2.8 E 11 13 6 7 1010.6 1010.5 0.0
19/03:30am 25.0 26.9 20.5 76 2.9 E 11 13 6 7 1010.7 1010.6 0.0
19/03:00am 24.9 27.2 20.6 77 2.8 ESE 9 11 5 6 1010.9 1010.8 0.0
19/02:30am 24.9 27.3 20.8 78 2.7 ESE 9 11 5 6 1010.5 1010.4 0.0
19/02:00am 25.1 27.2 21.0 78 2.7 E 11 15 6 8 1010.3 1010.2 0.0
19/01:30am 24.9 27.4 21.0 79 2.6 E 9 13 5 7 1010.7 1010.6 0.0
19/01:00am 25.1 27.3 21.2 79 2.6 ESE 11 13 6 7 1010.9 1010.8 0.0
19/12:30am 25.0 27.7 21.3 80 2.4 E 9 11 5 6 1011.3 1011.2 0.0
19/12:00am 25.1 28.1 21.2 79 2.6 E 7 9 4 5 1011.6 1011.5 0.0
 
Date/Time
EST
Temp
°C
App
Temp
°C
Dew
Point
Rel
Hum
%
Delta-T
°C
Wind Press
QNH
hPa
Press
MSL
hPa
Rain
since 9 am
mm
Dir
 
Spd
km/h
Gust
km/h
Spd
kts
Gust
kts
18/11:30pm 25.0 27.8 20.9 78 2.7 ESE 7 11 4 6 1011.9 1011.8 0.0
18/11:00pm 25.2 27.7 21.1 78 2.7 E 9 11 5 6 1011.5 1011.4 0.0
18/10:30pm 25.0 27.2 21.1 79 2.6 E 11 11 6 6 1011.5 1011.4 0.0
18/10:00pm 24.8 27.1 20.7 78 2.7 E 9 11 5 6 1011.6 1011.5 0.0
18/09:30pm 24.9 27.1 20.4 76 2.9 E 9 9 5 5 1011.1 1011.0 0.0
18/09:00pm 25.2 27.4 20.5 75 3.1 E 9 11 5 6 1010.7 1010.6 0.0
18/08:30pm 25.4 27.5 20.2 73 3.4 ENE 9 11 5 6 1010.4 1010.3 0.0
18/08:00pm 25.9 28.0 20.2 71 3.7 ENE 9 11 5 6 1010.2 1010.1 0.0
18/07:30pm 26.5 28.7 20.3 68 4.1 ENE 9 11 5 6 1010.0 1009.9 0.0
18/07:00pm 27.0 29.2 20.3 66 4.4 ENE 9 13 5 7 1009.6 1009.5 0.0
18/06:30pm 28.1 30.3 20.4 63 5.1 ENE 9 17 5 9 1009.4 1009.3 0.0
18/06:00pm 28.9 30.3 20.4 60 5.6 NE 13 19 7 10 1009.2 1009.1 0.0
18/05:30pm 29.9 31.2 20.2 56 6.4 NE 13 19 7 10 1009.1 1009.0 0.0
18/05:00pm 30.0 30.7 19.7 54 6.8 E 15 22 8 12 1008.9 1008.8 0.0
18/04:30pm 30.1 30.0 19.5 53 6.9 E 19 24 10 13 1008.7 1008.6 0.0
18/04:00pm 30.7 30.5 19.4 51 7.4 ESE 19 28 10 15 1008.9 1008.8 0.0
18/03:30pm 31.4 31.2 17.7 44 8.8 E 15 20 8 11 1009.0 1008.9 0.0
18/03:00pm 31.4 31.7 18.7 46 8.3 E 15 26 8 14 1009.4 1009.3 0.0
18/02:30pm 31.7 31.2 18.7 46 8.4 E 19 26 10 14 1009.8 1009.7 0.0
18/02:00pm 31.6 30.9 18.2 44 8.6 E 19 28 10 15 1010.1 1010.0 0.0
18/01:30pm 31.8 31.6 18.4 45 8.7 ESE 17 28 9 15 1010.5 1010.4 0.0
18/01:00pm 31.6 31.0 17.5 43 9.0 E 17 26 9 14 1010.8 1010.7 0.0
18/12:30pm 31.5 30.8 17.4 43 9.0 ESE 17 26 9 14 1011.0 1010.9 0.0
18/12:00pm 31.9 31.5 18.1 43 8.9 ESE 17 28 9 15 1011.4 1011.3 0.0
18/11:30am 31.6 31.3 18.2 44 8.6 ESE 17 26 9 14 1011.8 1011.7 0.0
18/11:00am 31.2 30.5 16.4 41 9.3 SE 15 22 8 12 1011.8 1011.7 0.0
18/10:30am 30.8 28.7 14.8 37 9.8 SE 19 24 10 13 1011.9 1011.8 0.0
18/10:00am 30.3 30.1 18.4 49 7.7 SE 17 24 9 13 1012.1 1012.0 0.0
18/09:30am 30.0 30.8 19.1 52 7.1 ESE 13 20 7 11 1012.2 1012.1 0.0
18/09:00am 30.0 31.0 19.4 53 6.9 ESE 13 20 7 11 1012.3 1012.2 0.0
18/08:30am 29.7 30.3 18.5 51 7.2 SE 13 19 7 10 1012.3 1012.2 0.0
18/08:00am 29.2 29.8 19.5 56 6.3 ESE 15 20 8 11 1012.0 1011.9 0.0
18/07:30am 28.6 29.9 19.2 56 6.1 SE 11 15 6 8 1012.0 1011.9 0.0
18/07:00am 28.0 30.7 20.6 64 4.9 ESE 7 9 4 5 1012.0 1011.9 0.0
18/06:30am 25.9 28.0 20.2 71 3.7 E 9 11 5 6 1011.6 1011.5 0.0
18/06:00am 24.3 26.3 20.0 77 2.8 ENE 9 9 5 5 1011.4 1011.3 0.0
18/05:30am 23.8 26.0 19.7 78 2.6 E 7 9 4 5 1010.9 1010.8 0.0
18/05:00am 23.9 25.8 19.8 78 2.6 ENE 9 9 5 5 1010.5 1010.4 0.0
18/04:30am 24.0 25.6 19.9 78 2.6 ENE 11 13 6 7 1009.7 1009.6 0.0
18/04:00am 24.2 26.6 20.1 78 2.7 ENE 7 9 4 5 1009.7 1009.6 0.0
18/03:30am 24.0 25.9 19.7 77 2.8 E 9 11 5 6 1009.2 1009.1 0.0
18/03:00am 24.5 26.6 20.2 77 2.8 ENE 9 13 5 7 1009.1 1009.0 0.0
18/02:30am 24.6 26.8 20.3 77 2.8 E 9 11 5 6 1009.2 1009.1 0.0
18/02:00am 24.7 27.3 20.4 77 2.8 E 7 9 4 5 1009.3 1009.2 0.0
18/01:30am 24.8 26.7 20.5 77 2.8 E 11 11 6 6 1009.5 1009.4 0.0
18/01:00am 24.9 27.2 20.6 77 2.8 E 9 11 5 6 1009.7 1009.6 0.0
18/12:30am 25.0 27.2 21.1 79 2.6 E 11 11 6 6 1009.8 1009.7 0.0
18/12:00am 25.1 27.3 21.2 79 2.6 E 11 11 6 6 1010.2 1010.1 0.0
 
Date/Time
EST
Temp
°C
App
Temp
°C
Dew
Point
Rel
Hum
%
Delta-T
°C
Wind Press
QNH
hPa
Press
MSL
hPa
Rain
since 9 am
mm
Dir
 
Spd
km/h
Gust
km/h
Spd
kts
Gust
kts
17/11:30pm 25.1 27.3 21.2 79 2.6 E 11 11 6 6 1010.3 1010.2 0.0
17/11:00pm 25.5 28.2 21.4 78 2.7 ENE 9 11 5 6 1010.7 1010.6 0.0
17/10:30pm 25.9 28.7 21.6 77 2.9 E 9 11 5 6 1010.7 1010.6 0.0
17/10:00pm 26.3 29.5 21.7 76 3.1 ENE 7 11 4 6 1010.5 1010.4 0.0
17/09:30pm 26.0 28.6 21.2 75 3.2 E 9 11 5 6 1010.1 1010.0 0.0
17/09:00pm 26.6 29.7 21.4 73 3.5 ENE 7 9 4 5 1009.7 1009.6 0.0
17/08:30pm 26.8 29.6 21.5 72 3.5 E 9 11 5 6 1009.1 1009.0 0.0
17/08:00pm 27.1 29.9 21.6 72 3.7 E 9 15 5 8 1008.5 1008.4 0.0
17/07:30pm 27.4 30.3 21.7 71 3.8 E 9 15 5 8 1008.3 1008.2 0.0
17/07:00pm 27.6 29.9 21.4 69 4.1 ENE 11 15 6 8 1008.0 1007.9 0.0
17/06:30pm 28.3 30.6 21.3 65 4.7 ENE 11 17 6 9 1007.7 1007.6 0.0
17/06:00pm 29.3 30.9 21.5 63 5.2 ENE 15 20 8 11 1007.4 1007.3 0.0
17/05:30pm 29.7 30.9 21.4 61 5.6 ENE 17 24 9 13 1007.4 1007.3 0.0
17/05:00pm 29.9 30.7 21.3 60 5.8 ENE 19 26 10 14 1007.4 1007.3 0.0
17/04:30pm 30.6 31.2 21.1 57 6.4 ENE 19 28 10 15 1007.3 1007.2 0.0
17/04:00pm 31.3 32.5 21.5 56 6.6 E 17 26 9 14 1007.3 1007.2 0.0
17/03:30pm 31.5 32.5 21.1 54 7.0 ENE 17 26 9 14 1007.7 1007.6 0.0
17/03:00pm 32.0 33.0 21.8 54 6.9 E 19 30 10 16 1007.9 1007.8 0.0
17/02:30pm 32.4 33.5 21.9 54 7.1 E 19 30 10 16 1008.1 1008.0 0.0
17/02:00pm 31.9 32.7 21.7 54 6.9 E 20 30 11 16 1008.6 1008.5 0.0
17/01:30pm 31.4 31.8 21.0 54 7.0 E 20 30 11 16 1008.9 1008.8 0.0
17/01:00pm 31.8 32.4 21.0 52 7.2 ESE 19 28 10 15 1009.1 1009.0 0.0
17/12:30pm 32.9 34.1 21.4 50 7.8 E 17 24 9 13 1009.2 1009.1 0.0
17/12:00pm 32.1 32.5 20.7 51 7.6 E 19 26 10 14 1009.5 1009.4 0.0
17/11:30am 31.7 32.5 20.6 51 7.4 E 17 26 9 14 1009.8 1009.7 0.0
17/11:00am 32.1 33.4 21.6 53 7.1 ESE 17 26 9 14 1010.0 1009.9 0.0
17/10:30am 31.1 33.4 21.3 56 6.6 E 11 17 6 9 1010.2 1010.1 0.0
17/10:00am 31.0 33.3 22.0 58 6.1 ESE 13 20 7 11 1010.4 1010.3 0.0
17/09:30am 30.9 32.8 21.4 57 6.4 ESE 13 20 7 11 1010.5 1010.4 0.0
17/09:00am 30.7 32.9 21.8 59 6.0 E 13 20 7 11 1010.4 1010.3 0.0
17/08:30am 30.3 33.1 23.0 65 5.0 E 13 17 7 9 1010.2 1010.1 0.0
17/08:00am 29.8 32.4 23.3 68 4.5 E 15 19 8 10 1010.0 1009.9 0.0
17/07:30am 29.2 32.2 23.4 71 4.0 E 13 20 7 11 1009.8 1009.7 0.0
17/07:00am 27.7 32.0 23.7 79 2.8 ESE 7 13 4 7 1009.6 1009.5 0.0
17/06:30am 26.6 30.7 23.9 85 1.9 E 9 13 5 7 1009.1 1009.0 0.0
17/06:00am 25.4 29.0 23.1 87 1.6 E 9 11 5 6 1008.7 1008.6 0.0
17/05:30am 25.3 29.1 22.8 86 1.7 E 7 9 4 5 1008.5 1008.4 0.0
17/05:00am 25.4 28.9 22.9 86 1.7 E 9 11 5 6 1008.1 1008.0 0.0
17/04:30am 25.8 29.8 23.1 85 1.8 ENE 7 9 4 5 1007.8 1007.7 0.0
17/04:00am 26.0 30.0 23.1 84 2.0 E 7 9 4 5 1007.6 1007.5 0.0
17/03:30am 26.5 30.2 23.2 82 2.2 E 9 9 5 5 1007.6 1007.5 0.0
17/03:00am 26.9 30.7 23.4 81 2.4 ENE 9 15 5 8 1007.8 1007.7 0.0
17/02:30am 26.7 30.5 23.4 82 2.3 E 9 13 5 7 1007.7 1007.6 0.0
17/02:00am 27.1 31.0 23.6 81 2.4 E 9 13 5 7 1007.8 1007.7 0.0
17/01:30am 27.4 31.3 23.6 80 2.6 E 9 13 5 7 1008.1 1008.0 0.0
17/01:00am 27.4 31.3 23.6 80 2.6 E 9 13 5 7 1008.6 1008.5 0.0
17/12:30am 27.5 31.2 23.9 81 2.5 E 11 17 6 9 1008.8 1008.7 0.0
17/12:00am 27.4 30.7 23.8 81 2.5 E 13 17 7 9 1009.1 1009.0 0.0
 
Date/Time
EST
Temp
°C
App
Temp
°C
Dew
Point
Rel
Hum
%
Delta-T
°C
Wind Press
QNH
hPa
Press
MSL
hPa
Rain
since 9 am
mm
Dir
 
Spd
km/h
Gust
km/h
Spd
kts
Gust
kts
16/11:30pm 27.5 31.2 23.9 81 2.5 ESE 11 17 6 9 1009.4 1009.3 0.0
16/11:00pm 27.5 31.2 23.9 81 2.5 E 11 15 6 8 1009.6 1009.5 0.0
16/10:30pm 27.4 31.5 24.0 82 2.3 E 9 13 5 7 1009.9 1009.8 0.0
16/10:00pm 27.4 31.2 24.0 82 2.3 E 11 15 6 8 1009.8 1009.7 0.0
16/09:30pm 27.6 31.4 24.0 81 2.5 E 11 15 6 8 1009.7 1009.6 0.0
16/09:00pm 27.7 31.3 23.7 79 2.8 E 11 15 6 8 1009.5 1009.4 0.0
16/08:30pm 27.7 31.8 23.9 80 2.6 E 9 11 5 6 1009.4 1009.3 0.0
16/08:00pm 27.9 31.6 23.9 79 2.8 E 11 15 6 8 1009.0 1008.9 0.0
16/07:30pm 27.9 31.6 23.9 79 2.8 E 11 15 6 8 1008.6 1008.5 0.0
16/07:00pm 28.1 31.7 23.7 77 3.0 E 11 17 6 9 1008.6 1008.5 0.0
16/06:30pm 28.5 31.9 24.1 77 3.0 E 13 19 7 10 1008.2 1008.1 0.0
16/06:00pm 28.8 31.4 23.9 75 3.4 E 17 24 9 13 1007.9 1007.8 0.0
16/05:30pm 29.0 31.3 24.1 75 3.4 ESE 19 28 10 15 1007.8 1007.7 0.0
16/05:00pm 29.3 31.3 24.0 73 3.7 ESE 20 26 11 14 1007.7 1007.6 0.0
16/04:30pm 30.0 32.4 24.2 71 4.0 ESE 19 26 10 14 1007.8 1007.7 0.0
16/04:00pm 31.0 32.7 24.1 66 4.8 ESE 22 32 12 17 1007.6 1007.5 0.0
16/03:30pm 31.2 33.5 24.1 66 4.9 ESE 19 28 10 15 1007.9 1007.8 0.0
16/03:00pm 31.0 33.3 24.1 66 4.8 ESE 19 28 10 15 1008.3 1008.2 0.0
16/02:30pm 30.0 31.5 23.7 69 4.4 E 22 32 12 17 1008.5 1008.4 0.0
16/02:00pm 30.1 31.9 23.5 67 4.6 ESE 20 30 11 16 1008.8 1008.7 0.0
16/01:30pm 31.5 33.9 24.6 67 4.8 ESE 20 30 11 16 1009.0 1008.9 0.0
16/01:00pm 31.0 33.1 24.1 66 4.8 E 20 26 11 14 1009.3 1009.2 0.0
16/12:30pm 30.2 32.6 24.6 72 3.9 ESE 20 32 11 17 1009.8 1009.7 0.0
16/12:00pm 30.7 33.0 25.1 72 3.9 ESE 22 32 12 17 1010.2 1010.1 0.0
16/11:30am 30.7 33.0 24.4 69 4.4 ESE 20 32 11 17 1010.5 1010.4 0.0
16/11:00am 31.2 33.9 24.8 69 4.5 ESE 19 32 10 17 1010.7 1010.6 0.0
16/10:30am 30.5 32.3 24.2 69 4.4 E 22 30 12 16 1010.8 1010.7 0.0
16/10:00am 30.3 32.5 24.2 70 4.2 E 20 30 11 16 1011.1 1011.0 0.0
16/09:30am 31.4 33.8 24.3 66 5.0 E 19 26 10 14 1011.2 1011.1 0.0
16/09:00am 31.5 34.9 24.6 67 4.8 ESE 15 20 8 11 1011.3 1011.2 0.0
16/08:30am 30.7 34.4 25.1 72 3.9 E 15 24 8 13 1011.3 1011.2 0.0
16/08:00am 29.9 34.0 25.2 76 3.3 ESE 13 20 7 11 1011.1 1011.0 0.0

Other Formats:

Comma delimited format used in spreadsheet applications
http://www.bom.gov.au/fwo/IDQ60801/IDQ60801.94188.axf

JavaScript Object Notation format (JSON) in row-major order
http://www.bom.gov.au/fwo/IDQ60801/IDQ60801.94188.json